createdAt,value
2022-10-30T00:02:26.461Z,17.93
2022-10-30T00:04:52.919Z,17.94
2022-10-30T00:07:19.396Z,17.94
2022-10-30T00:09:45.948Z,17.87
2022-10-30T00:12:12.418Z,17.91
2022-10-30T00:14:39.019Z,17.90
2022-10-30T00:17:05.499Z,17.88
2022-10-30T00:19:32.013Z,17.90
2022-10-30T00:24:24.676Z,17.87
2022-10-30T00:26:51.174Z,17.88
2022-10-30T00:29:17.802Z,17.88
2022-10-30T00:31:44.301Z,17.88
2022-10-30T00:34:10.883Z,17.84
2022-10-30T00:36:37.557Z,17.85
2022-10-30T00:39:04.105Z,17.86
2022-10-30T00:41:30.530Z,17.84
2022-10-30T00:43:57.028Z,17.83
2022-10-30T00:46:43.986Z,17.83
2022-10-30T00:49:15.394Z,17.76
2022-10-30T00:51:46.036Z,17.78
2022-10-30T00:54:16.258Z,17.79
2022-10-30T00:56:43.492Z,17.79
2022-10-30T00:59:18.281Z,17.76
2022-10-30T01:01:46.763Z,17.73
2022-10-30T01:04:16.728Z,17.71
2022-10-30T01:06:48.117Z,17.74
2022-10-30T01:09:15.529Z,17.69
2022-10-30T01:11:42.099Z,17.71
2022-10-30T01:14:11.163Z,17.63
2022-10-30T01:17:01.347Z,17.66
2022-10-30T01:19:48.526Z,17.68
2022-10-30T01:22:37.601Z,17.64
2022-10-30T01:25:03.994Z,17.63
2022-10-30T01:27:33.861Z,17.58
2022-10-30T01:30:31.916Z,17.56
2022-10-30T01:33:30.501Z,17.56
2022-10-30T01:36:04.608Z,17.52
2022-10-30T01:38:44.337Z,17.50
2022-10-30T01:41:10.759Z,17.44
2022-10-30T01:43:38.316Z,17.40
2022-10-30T01:46:10.007Z,17.37
2022-10-30T01:48:36.348Z,17.30
2022-10-30T01:51:41.608Z,17.25
2022-10-30T01:54:18.761Z,17.26
2022-10-30T01:57:05.548Z,17.23
2022-10-30T01:59:45.884Z,17.21
2022-10-30T02:02:13.257Z,17.19
2022-10-30T02:04:39.996Z,17.16
2022-10-30T02:07:06.543Z,17.10
2022-10-30T02:09:33.082Z,17.05
2022-10-30T02:12:00.429Z,17.06
2022-10-30T02:14:33.918Z,17.04
2022-10-30T02:17:03.940Z,16.90
2022-10-30T02:19:30.386Z,16.81
2022-10-30T02:21:56.881Z,16.79
2022-10-30T02:24:23.534Z,16.81
2022-10-30T02:26:50.020Z,16.69
2022-10-30T02:29:20.585Z,16.73
2022-10-30T02:31:47.264Z,16.74
2022-10-30T02:34:14.284Z,16.71
2022-10-30T02:36:40.857Z,16.66
2022-10-30T02:39:07.476Z,16.69
2022-10-30T02:41:33.987Z,16.69
2022-10-30T02:44:00.420Z,16.68
2022-10-30T02:46:26.851Z,16.69
2022-10-30T02:48:53.319Z,16.62
2022-10-30T02:51:19.823Z,16.56
2022-10-30T02:53:47.352Z,16.52
2022-10-30T02:56:15.299Z,16.51
2022-10-30T02:58:42.388Z,16.53
2022-10-30T03:01:11.537Z,16.51
2022-10-30T03:03:38.398Z,16.50
2022-10-30T03:06:07.247Z,16.41
2022-10-30T03:08:34.381Z,16.30
2022-10-30T03:11:04.932Z,16.17
2022-10-30T03:13:33.380Z,16.24
2022-10-30T03:16:05.063Z,16.27
2022-10-30T03:18:32.227Z,16.30
2022-10-30T03:21:00.967Z,16.20
2022-10-30T03:23:28.065Z,16.24
2022-10-30T03:25:56.112Z,16.30
2022-10-30T03:28:24.473Z,16.30
2022-10-30T03:30:52.168Z,16.22
2022-10-30T03:33:18.772Z,16.16
2022-10-30T03:35:45.676Z,16.16
2022-10-30T03:38:13.378Z,16.14
2022-10-30T03:40:40.460Z,16.21
2022-10-30T03:43:07.105Z,16.17
2022-10-30T03:45:34.793Z,16.15
2022-10-30T03:48:02.448Z,16.14
2022-10-30T03:50:29.438Z,16.15
2022-10-30T03:52:56.800Z,16.11
2022-10-30T03:55:24.490Z,16.09
2022-10-30T03:57:51.624Z,16.03
2022-10-30T04:00:18.848Z,15.99
2022-10-30T04:02:49.591Z,16.03
2022-10-30T04:05:17.982Z,16.08
2022-10-30T04:07:44.665Z,16.03
2022-10-30T04:10:12.467Z,15.84
2022-10-30T04:12:39.423Z,15.90
2022-10-30T04:15:07.353Z,15.87
2022-10-30T04:17:34.548Z,15.79
2022-10-30T04:20:00.979Z,15.72
2022-10-30T04:22:27.928Z,15.77
2022-10-30T04:24:54.326Z,15.74
2022-10-30T04:27:20.739Z,15.74
2022-10-30T04:29:47.304Z,15.80
2022-10-30T04:32:14.544Z,15.80
2022-10-30T04:34:41.002Z,15.69
2022-10-30T04:37:07.733Z,15.39
2022-10-30T04:39:34.194Z,15.34
2022-10-30T04:42:00.615Z,15.32
2022-10-30T04:44:27.081Z,15.43
2022-10-30T04:46:53.563Z,15.35
2022-10-30T04:49:20.025Z,15.49
2022-10-30T04:51:47.309Z,15.52
2022-10-30T04:54:13.855Z,15.53
2022-10-30T04:56:40.454Z,15.49
2022-10-30T04:59:06.972Z,15.45
2022-10-30T05:01:33.513Z,15.41
2022-10-30T05:04:00.072Z,15.32
2022-10-30T05:06:30.269Z,15.28
2022-10-30T05:08:57.017Z,15.23
2022-10-30T05:11:23.607Z,15.22
2022-10-30T05:13:50.123Z,15.26
2022-10-30T05:16:16.590Z,15.23
2022-10-30T05:18:43.008Z,15.17
2022-10-30T05:21:09.574Z,15.20
2022-10-30T05:23:36.072Z,15.22
2022-10-30T05:26:03.006Z,15.23
2022-10-30T05:28:29.648Z,15.16
2022-10-30T05:30:56.058Z,15.26
2022-10-30T05:33:23.423Z,15.17
2022-10-30T05:35:50.053Z,15.25
2022-10-30T05:38:16.473Z,15.16
2022-10-30T05:40:46.399Z,15.09
2022-10-30T05:43:12.806Z,15.17
2022-10-30T05:45:39.195Z,15.24
2022-10-30T05:48:06.644Z,15.30
2022-10-30T05:50:33.725Z,15.22
2022-10-30T05:53:02.589Z,15.26
2022-10-30T05:55:29.551Z,15.27
2022-10-30T05:58:04.237Z,15.30
2022-10-30T06:00:34.011Z,15.26
2022-10-30T06:03:02.654Z,15.30
2022-10-30T06:05:31.443Z,15.35
2022-10-30T06:07:57.872Z,15.29
2022-10-30T06:10:24.692Z,15.25
2022-10-30T06:12:59.175Z,15.25
2022-10-30T06:15:26.659Z,15.28
2022-10-30T06:17:53.644Z,15.24
2022-10-30T06:20:22.037Z,15.25
2022-10-30T06:22:58.411Z,15.20
2022-10-30T06:25:25.774Z,15.22
2022-10-30T06:27:52.257Z,15.17
2022-10-30T06:30:19.441Z,15.14
2022-10-30T06:32:46.079Z,15.17
2022-10-30T06:35:12.546Z,15.13
2022-10-30T06:37:45.490Z,15.06
2022-10-30T06:40:12.108Z,15.09
2022-10-30T06:42:49.435Z,15.13
2022-10-30T06:45:16.872Z,15.10
2022-10-30T06:47:43.502Z,15.06
2022-10-30T06:50:13.091Z,15.01
2022-10-30T06:52:39.619Z,15.07
2022-10-30T06:55:06.643Z,14.90
2022-10-30T06:57:33.099Z,14.88
2022-10-30T06:59:59.562Z,14.84
2022-10-30T07:02:26.096Z,14.79
2022-10-30T07:04:52.600Z,14.89
2022-10-30T07:07:19.130Z,15.02
2022-10-30T07:09:48.575Z,15.15
2022-10-30T07:12:15.014Z,15.16
2022-10-30T07:14:41.988Z,15.18
2022-10-30T07:17:08.893Z,15.25
2022-10-30T07:19:35.424Z,15.27
2022-10-30T07:22:02.500Z,15.15
2022-10-30T07:24:28.980Z,15.02
2022-10-30T07:26:56.130Z,15.09
2022-10-30T07:29:22.703Z,15.20
2022-10-30T07:32:01.498Z,15.35
2022-10-30T07:34:28.428Z,15.42
2022-10-30T07:36:54.852Z,15.49
2022-10-30T07:39:21.409Z,15.54
2022-10-30T07:41:50.245Z,15.57
2022-10-30T07:44:16.972Z,15.63
2022-10-30T07:46:43.555Z,15.65
2022-10-30T07:49:09.968Z,15.69
2022-10-30T07:51:36.388Z,15.79
2022-10-30T07:54:02.836Z,15.85
2022-10-30T07:56:29.254Z,15.86
2022-10-30T07:58:55.671Z,15.91
2022-10-30T08:01:22.253Z,15.94
2022-10-30T08:03:48.831Z,15.92
2022-10-30T08:06:15.270Z,16.00
2022-10-30T08:08:43.485Z,16.04
2022-10-30T08:11:10.273Z,16.08
2022-10-30T08:13:36.832Z,16.13
2022-10-30T08:16:03.275Z,16.15
2022-10-30T08:18:29.763Z,16.22
2022-10-30T08:20:56.292Z,16.30
2022-10-30T08:23:23.018Z,16.33
2022-10-30T08:25:49.470Z,16.35
2022-10-30T08:28:15.969Z,16.41
2022-10-30T08:30:42.547Z,16.40
2022-10-30T08:33:15.280Z,16.26
2022-10-30T08:35:52.608Z,16.44
2022-10-30T08:38:19.380Z,16.40
2022-10-30T08:40:46.147Z,16.47
2022-10-30T08:43:13.106Z,16.48
2022-10-30T08:45:39.966Z,16.51
2022-10-30T08:48:07.522Z,16.52
2022-10-30T08:50:34.662Z,16.54
2022-10-30T08:53:07.310Z,16.54
2022-10-30T08:55:34.962Z,16.55
2022-10-30T08:58:01.822Z,16.59
2022-10-30T09:00:29.168Z,16.60
2022-10-30T09:02:56.149Z,16.58
2022-10-30T09:05:23.005Z,16.62
2022-10-30T09:07:49.588Z,16.65
2022-10-30T09:10:16.138Z,16.65
2022-10-30T09:12:42.587Z,16.70
2022-10-30T09:15:09.172Z,16.71
2022-10-30T09:17:35.686Z,16.73
2022-10-30T09:20:02.187Z,16.78
2022-10-30T09:22:28.798Z,16.80
2022-10-30T09:24:55.228Z,16.88
2022-10-30T09:27:21.792Z,16.91
2022-10-30T09:29:48.247Z,16.95
2022-10-30T09:32:14.715Z,16.96
2022-10-30T09:34:41.222Z,16.99
2022-10-30T09:37:08.336Z,17.05
2022-10-30T09:39:34.859Z,17.06
2022-10-30T09:42:13.254Z,17.12
2022-10-30T09:45:08.079Z,17.19
2022-10-30T09:48:03.883Z,17.25
2022-10-30T09:50:38.935Z,17.31
2022-10-30T09:53:27.514Z,17.35
2022-10-30T09:56:17.909Z,17.40
2022-10-30T09:59:09.794Z,17.46
2022-10-30T10:02:04.079Z,17.52
2022-10-30T10:04:39.554Z,17.59
2022-10-30T10:07:16.468Z,17.60
2022-10-30T10:09:44.664Z,17.73
2022-10-30T10:12:17.354Z,17.81
2022-10-30T10:14:47.239Z,17.83
2022-10-30T10:17:25.037Z,17.96
2022-10-30T10:19:59.369Z,18.03
2022-10-30T10:22:45.087Z,18.08
2022-10-30T10:25:15.456Z,18.14
2022-10-30T10:28:00.342Z,18.20
2022-10-30T10:30:38.503Z,18.28
2022-10-30T10:33:33.639Z,18.34
2022-10-30T10:36:05.059Z,18.40
2022-10-30T10:38:57.299Z,18.42
2022-10-30T10:41:42.939Z,18.45
2022-10-30T10:44:27.203Z,18.30
2022-10-30T10:47:32.198Z,18.58
2022-10-30T10:50:21.621Z,18.65
2022-10-30T10:53:07.090Z,18.71
2022-10-30T10:55:37.559Z,18.80
2022-10-30T10:58:29.533Z,18.84
2022-10-30T11:00:58.786Z,18.89
2022-10-30T11:03:47.643Z,18.92
2022-10-30T11:06:23.200Z,18.95
2022-10-30T11:08:52.378Z,19.02
2022-10-30T11:11:18.998Z,19.04
2022-10-30T11:13:45.834Z,19.12
2022-10-30T11:16:25.528Z,19.16
2022-10-30T11:19:01.022Z,19.22
2022-10-30T11:21:29.502Z,19.28
2022-10-30T11:23:56.056Z,19.36
2022-10-30T11:26:22.905Z,19.44
2022-10-30T11:29:04.366Z,19.52
2022-10-30T11:31:35.227Z,19.59
2022-10-30T11:34:17.052Z,19.67
2022-10-30T11:36:44.432Z,19.73
2022-10-30T11:39:17.365Z,19.79
2022-10-30T11:41:56.909Z,19.87
2022-10-30T11:44:25.288Z,19.90
2022-10-30T11:46:52.080Z,19.95
2022-10-30T11:49:35.980Z,20.03
2022-10-30T11:52:03.157Z,20.07
2022-10-30T11:54:29.636Z,20.12
2022-10-30T11:56:58.103Z,20.12
2022-10-30T11:59:25.405Z,20.16
2022-10-30T12:02:21.804Z,20.14
2022-10-30T12:04:50.892Z,20.22
2022-10-30T12:07:26.427Z,20.27
2022-10-30T12:09:53.253Z,20.31
2022-10-30T12:12:32.879Z,20.34
2022-10-30T12:15:10.644Z,20.32
2022-10-30T12:17:38.623Z,20.38
2022-10-30T12:20:07.259Z,20.41
2022-10-30T12:22:35.177Z,20.50
2022-10-30T12:25:15.401Z,20.62
2022-10-30T12:27:41.880Z,20.69
2022-10-30T12:30:18.428Z,20.75
2022-10-30T12:32:56.570Z,20.75
2022-10-30T12:35:41.776Z,20.74
2022-10-30T12:38:33.277Z,20.80
2022-10-30T12:41:18.241Z,20.84
2022-10-30T12:43:52.359Z,20.86
2022-10-30T12:46:40.200Z,20.92
2022-10-30T12:49:27.599Z,20.99
2022-10-30T12:52:00.399Z,21.03
2022-10-30T12:54:29.653Z,21.03
2022-10-30T12:57:12.723Z,21.10
2022-10-30T13:00:06.556Z,21.14
2022-10-30T13:02:52.724Z,21.14
2022-10-30T13:05:28.265Z,21.13
2022-10-30T13:08:06.419Z,21.19
2022-10-30T13:10:42.560Z,21.22
2022-10-30T13:13:48.489Z,21.22
2022-10-30T13:16:22.434Z,21.25
2022-10-30T13:18:50.538Z,21.22
2022-10-30T13:21:23.718Z,21.24
2022-10-30T13:24:10.103Z,21.22
2022-10-30T13:26:47.324Z,21.17
2022-10-30T13:29:41.331Z,21.18
2022-10-30T13:32:31.663Z,21.11
2022-10-30T13:35:21.888Z,21.17
2022-10-30T13:37:56.868Z,21.19
2022-10-30T13:40:36.292Z,21.19
2022-10-30T13:43:28.626Z,21.16
2022-10-30T13:46:00.975Z,21.14
2022-10-30T13:48:56.957Z,21.16
2022-10-30T13:51:38.942Z,20.94
2022-10-30T13:54:23.029Z,21.11
2022-10-30T13:56:51.797Z,21.07
2022-10-30T13:59:48.385Z,21.02
2022-10-30T14:02:38.354Z,20.97
2022-10-30T14:05:26.741Z,20.91
2022-10-30T14:08:15.171Z,20.89
2022-10-30T14:10:48.048Z,20.74
2022-10-30T14:13:26.697Z,20.88
2022-10-30T14:15:56.321Z,20.85
2022-10-30T14:18:27.624Z,20.83
2022-10-30T14:20:56.719Z,20.81
2022-10-30T14:23:37.610Z,20.79
2022-10-30T14:26:04.035Z,20.76
2022-10-30T14:28:32.442Z,20.69
2022-10-30T14:31:06.193Z,20.62
2022-10-30T14:33:53.777Z,20.58
2022-10-30T14:36:46.448Z,20.51
2022-10-30T14:39:12.950Z,20.46
2022-10-30T14:42:10.264Z,20.43
2022-10-30T14:44:48.958Z,20.37
2022-10-30T14:47:38.294Z,20.31
2022-10-30T14:50:20.142Z,20.24
2022-10-30T14:53:10.708Z,20.19
2022-10-30T14:55:39.909Z,20.18
2022-10-30T14:58:06.318Z,20.13
2022-10-30T15:00:32.844Z,20.10
2022-10-30T15:03:13.433Z,20.06
2022-10-30T15:05:44.650Z,20.07
2022-10-30T15:08:34.740Z,20.07
2022-10-30T15:11:04.048Z,20.06
2022-10-30T15:13:30.592Z,20.08
2022-10-30T15:15:59.603Z,20.08
2022-10-30T15:18:30.587Z,20.09
2022-10-30T15:21:04.702Z,20.09
2022-10-30T15:23:34.285Z,20.06
2022-10-30T15:26:09.586Z,20.05
2022-10-30T15:28:38.458Z,20.02
2022-10-30T15:31:22.998Z,19.92
2022-10-30T15:33:50.351Z,19.98
2022-10-30T15:36:42.985Z,19.96
2022-10-30T15:39:19.733Z,19.92
2022-10-30T15:41:56.649Z,19.89
2022-10-30T15:44:30.027Z,19.82
2022-10-30T15:47:00.919Z,19.84
2022-10-30T15:49:30.220Z,19.82
2022-10-30T15:51:57.329Z,19.79
2022-10-30T15:54:24.686Z,19.74
2022-10-30T15:57:27.558Z,19.73
2022-10-30T15:59:51.570Z,19.67
2022-10-30T16:02:23.752Z,19.66
2022-10-30T16:04:50.597Z,19.62
2022-10-30T16:07:28.328Z,19.55
2022-10-30T16:09:56.932Z,19.46
2022-10-30T16:12:31.368Z,19.42
2022-10-30T16:15:02.315Z,19.35
2022-10-30T16:17:29.055Z,19.30
2022-10-30T16:20:00.868Z,19.25
2022-10-30T16:22:31.767Z,19.20
2022-10-30T16:24:58.529Z,19.16
2022-10-30T16:27:25.997Z,19.11
2022-10-30T16:29:55.824Z,19.03
2022-10-30T16:32:26.152Z,19.04
2022-10-30T16:34:57.651Z,19.00
2022-10-30T16:37:34.500Z,18.97
2022-10-30T16:40:15.576Z,18.96
2022-10-30T16:42:58.195Z,18.91
2022-10-30T16:45:27.894Z,18.88
2022-10-30T16:48:05.890Z,18.84
2022-10-30T16:50:37.939Z,18.80
2022-10-30T16:53:25.228Z,18.79
2022-10-30T16:55:53.081Z,18.76
2022-10-30T16:58:23.750Z,18.70
2022-10-30T17:01:10.569Z,18.67
2022-10-30T17:03:40.387Z,18.65
2022-10-30T17:06:26.352Z,18.62
2022-10-30T17:08:57.158Z,18.61
2022-10-30T17:11:37.462Z,18.56
2022-10-30T17:14:16.944Z,18.52
2022-10-30T17:16:52.947Z,18.42
2022-10-30T17:19:31.590Z,18.34
2022-10-30T17:22:21.465Z,18.24
2022-10-30T17:24:48.295Z,18.12
2022-10-30T17:27:40.908Z,18.04
2022-10-30T17:30:28.988Z,18.02
2022-10-30T17:32:55.532Z,18.01
2022-10-30T17:35:22.103Z,18.03
2022-10-30T17:37:48.838Z,17.96
2022-10-30T17:40:18.133Z,17.96
2022-10-30T17:42:45.068Z,17.91
2022-10-30T17:45:15.503Z,17.93
2022-10-30T17:47:42.060Z,17.92
2022-10-30T17:50:09.025Z,17.85
2022-10-30T17:52:35.903Z,17.83
2022-10-30T17:55:02.934Z,17.84
2022-10-30T17:57:29.569Z,17.84
2022-10-30T17:59:56.064Z,17.84
2022-10-30T18:02:23.587Z,17.83
2022-10-30T18:04:52.567Z,17.76
2022-10-30T18:07:19.245Z,17.66
2022-10-30T18:09:45.961Z,17.63
2022-10-30T18:12:15.320Z,17.58
2022-10-30T18:14:43.070Z,17.51
2022-10-30T18:17:10.430Z,17.46
2022-10-30T18:19:36.956Z,17.54
2022-10-30T18:22:03.560Z,17.49
2022-10-30T18:24:30.228Z,17.40
2022-10-30T18:26:56.781Z,17.32
2022-10-30T18:29:23.624Z,17.34
2022-10-30T18:31:50.085Z,17.36
2022-10-30T18:34:20.972Z,17.40
2022-10-30T18:36:48.595Z,17.47
2022-10-30T18:39:15.088Z,17.50
2022-10-30T18:41:44.219Z,17.54
2022-10-30T18:44:14.769Z,17.56
2022-10-30T18:46:41.592Z,17.48
2022-10-30T18:49:08.161Z,17.52
2022-10-30T18:51:35.059Z,17.47
2022-10-30T18:54:01.877Z,17.46
2022-10-30T18:56:30.773Z,17.41
2022-10-30T18:59:01.834Z,17.50
2022-10-30T19:01:32.224Z,17.46
2022-10-30T19:04:03.528Z,17.32
2022-10-30T19:06:30.892Z,17.36
2022-10-30T19:08:57.477Z,17.38
2022-10-30T19:11:25.856Z,17.39
2022-10-30T19:13:54.423Z,17.38
2022-10-30T19:16:24.311Z,17.36
2022-10-30T19:18:50.805Z,17.31
2022-10-30T19:21:19.678Z,17.34
2022-10-30T19:23:46.478Z,17.27
2022-10-30T19:26:16.948Z,17.27
2022-10-30T19:28:44.351Z,17.21
2022-10-30T19:31:14.758Z,17.15
2022-10-30T19:33:41.790Z,17.14
2022-10-30T19:36:27.081Z,17.12
2022-10-30T19:38:53.984Z,17.15
2022-10-30T19:41:20.802Z,17.16
2022-10-30T19:43:47.388Z,17.04
2022-10-30T19:46:15.117Z,17.01
2022-10-30T19:48:58.612Z,16.98
2022-10-30T19:51:27.748Z,16.98
2022-10-30T19:53:55.423Z,16.93
2022-10-30T19:56:22.361Z,16.89
2022-10-30T19:58:49.313Z,16.89
2022-10-30T20:01:16.155Z,16.89
2022-10-30T20:03:42.976Z,16.90
2022-10-30T20:06:12.259Z,16.88
2022-10-30T20:08:39.366Z,16.82
2022-10-30T20:11:05.889Z,16.82
2022-10-30T20:13:33.424Z,16.82
2022-10-30T20:16:00.654Z,16.80
2022-10-30T20:18:31.331Z,16.72
2022-10-30T20:21:00.695Z,16.68
2022-10-30T20:23:27.875Z,16.64
2022-10-30T20:26:01.478Z,16.53
2022-10-30T20:28:35.086Z,16.57
2022-10-30T20:31:01.781Z,16.56
2022-10-30T20:33:28.461Z,16.53
2022-10-30T20:35:55.567Z,16.51
2022-10-30T20:38:29.089Z,16.51
2022-10-30T20:40:56.943Z,16.47
2022-10-30T20:43:29.147Z,16.42
2022-10-30T20:45:56.604Z,16.33
2022-10-30T20:48:23.115Z,16.23
2022-10-30T20:50:52.565Z,16.22
2022-10-30T20:53:19.093Z,16.08
2022-10-30T20:55:45.815Z,16.00
2022-10-30T20:58:12.525Z,15.90
2022-10-30T21:00:39.478Z,15.89
2022-10-30T21:03:06.373Z,15.71
2022-10-30T21:05:45.137Z,15.65
2022-10-30T21:08:15.395Z,15.64
2022-10-30T21:10:42.248Z,15.54
2022-10-30T21:13:10.231Z,15.54
2022-10-30T21:15:42.603Z,15.54
2022-10-30T21:18:11.516Z,15.53
2022-10-30T21:20:38.345Z,15.46
2022-10-30T21:23:05.822Z,15.47
2022-10-30T21:25:32.854Z,15.52
2022-10-30T21:27:59.827Z,15.56
2022-10-30T21:30:26.748Z,15.58
2022-10-30T21:32:53.268Z,15.60
2022-10-30T21:35:22.136Z,15.63
2022-10-30T21:37:49.035Z,15.74
2022-10-30T21:40:15.710Z,15.77
2022-10-30T21:42:42.315Z,15.49
2022-10-30T21:45:09.535Z,15.61
2022-10-30T21:47:36.009Z,15.50
2022-10-30T21:50:06.172Z,15.36
2022-10-30T21:52:35.996Z,15.28
2022-10-30T21:55:02.575Z,15.25
2022-10-30T21:57:29.575Z,15.25
2022-10-30T21:59:58.760Z,15.29
2022-10-30T22:02:28.192Z,15.33
2022-10-30T22:04:54.708Z,15.35
2022-10-30T22:07:21.231Z,15.38
2022-10-30T22:09:47.672Z,15.45
2022-10-30T22:12:14.158Z,15.53
2022-10-30T22:14:40.648Z,15.48
2022-10-30T22:17:07.159Z,15.49
2022-10-30T22:19:33.612Z,15.53
2022-10-30T22:22:00.085Z,15.51
2022-10-30T22:24:26.710Z,15.60
2022-10-30T22:26:53.212Z,15.51
2022-10-30T22:29:19.684Z,15.46
2022-10-30T22:31:46.180Z,15.45
2022-10-30T22:34:12.660Z,15.46
2022-10-30T22:36:39.112Z,15.57
2022-10-30T22:39:12.393Z,15.61
2022-10-30T22:41:39.019Z,15.65
2022-10-30T22:44:08.697Z,15.58
2022-10-30T22:46:36.349Z,15.60
2022-10-30T22:49:03.512Z,15.59
2022-10-30T22:51:33.455Z,15.59
2022-10-30T22:54:02.054Z,15.56
2022-10-30T22:56:31.368Z,15.51
2022-10-30T22:59:04.659Z,15.53
2022-10-30T23:01:33.618Z,15.46
2022-10-30T23:04:02.209Z,15.42
2022-10-30T23:06:30.408Z,15.35
2022-10-30T23:08:58.798Z,15.27
2022-10-30T23:11:26.311Z,15.19
2022-10-30T23:13:53.158Z,15.10
2022-10-30T23:16:21.476Z,15.06
2022-10-30T23:18:48.925Z,15.05
2022-10-30T23:21:21.350Z,15.08
2022-10-30T23:23:48.310Z,15.06
2022-10-30T23:26:18.796Z,15.13
2022-10-30T23:28:46.695Z,15.21
2022-10-30T23:31:26.767Z,15.26
2022-10-30T23:33:56.709Z,15.17
2022-10-30T23:36:24.253Z,15.19
2022-10-30T23:38:54.930Z,15.19
2022-10-30T23:41:22.843Z,15.15
2022-10-30T23:43:53.085Z,15.14
2022-10-30T23:46:19.689Z,14.98
2022-10-30T23:48:46.399Z,15.00
2022-10-30T23:51:13.077Z,15.05
2022-10-30T23:53:39.563Z,15.02
2022-10-30T23:56:06.395Z,15.02
2022-10-30T23:58:32.950Z,14.97
